Terminal Aerodrome Forecast
Issued by NWS

Home | Current Version | Previous Version | Text Only | Print | Product List | Glossary Off
Versions: 1 2 3 4 5 6 7 8 9 10 11 12 13 14 15 16 17

000
FTUS42 KMHX 291300 AAA
TAFPGV
TAF AMD
KPGV 291319Z 2913/3012 06005KT P6SM OVC010
     FM291430 07004KT P6SM SCT015 SCT040
     FM291800 08007KT P6SM BKN040
     FM300100 12005KT P6SM SCT040
     FM300700 00000KT 4SM BR SCT003
      AMD LTD TO CLD VIS AND WIND=

USA.gov is the U.S. government's official web portal to all federal, state and local government web resources and services.